Time;durP1;ratioP1;P1;durP2;ratioP2;P2;SDS_P1;SDS_P2;PMS_P1;PMS_P2;Temp;Humidity;BMP_temperature;BMP_pressure;BME280_temperature;BME280_humidity;BME280_pressure;Samples;Min_cycle;Max_cycle;Signal;HPM_P1;HPM_P2
2021/04/05 00:00:31;;;;;;;8.80;1.60;;;;;;;8.19;64.34;97918.28;5079271;28;20205;-69
2021/04/05 00:02:58;;;;;;;4.97;1.27;;;;;;;8.16;64.24;97924.78;5084794;28;20201;-69
2021/04/05 00:05:28;;;;;;;1.87;1.10;;;;;;;8.30;63.15;97910.00;5070168;28;20221;-76
2021/04/05 00:07:56;;;;;;;4.70;1.20;;;;;;;8.27;63.53;97903.16;5067647;28;20745;-76
2021/04/05 00:10:28;;;;;;;6.07;1.37;;;;;;;8.32;63.33;97879.44;5082739;28;20539;-76
2021/04/05 00:12:57;;;;;;;1.83;1.10;;;;;;;8.35;62.95;97871.13;5088006;28;20200;-76
2021/04/05 00:15:24;;;;;;;2.10;1.20;;;;;;;8.34;62.69;97864.09;5086178;28;20275;-76
2021/04/05 00:17:53;;;;;;;1.97;1.30;;;;;;;8.31;63.01;97855.53;5078105;28;20289;-76
2021/04/05 00:20:24;;;;;;;3.27;1.23;;;;;;;8.36;62.86;97843.38;5078873;28;20294;-76
2021/04/05 00:22:51;;;;;;;0.80;0.80;;;;;;;8.36;62.92;97840.72;5075610;28;20205;-76
2021/04/05 00:25:19;;;;;;;2.63;0.90;;;;;;;8.40;62.12;97836.72;5083142;28;20224;-76
2021/04/05 00:27:46;;;;;;;1.43;1.07;;;;;;;8.33;62.30;97840.19;5090933;28;20663;-69
2021/04/05 00:30:22;;;;;;;1.27;0.90;;;;;;;8.31;62.90;97818.94;5085967;28;20210;-69
2021/04/05 00:32:50;;;;;;;2.57;0.80;;;;;;;8.30;62.79;97817.28;5083080;28;20207;-76
2021/04/05 00:35:18;;;;;;;79.93;32.23;;;;;;;8.27;62.54;97814.09;5077338;28;20196;-76
2021/04/05 00:37:46;;;;;;;8.73;3.83;;;;;;;8.27;62.54;97793.53;5083638;28;20602;-76
2021/04/05 00:40:16;;;;;;;4.40;2.00;;;;;;;8.30;62.58;97790.53;5080476;28;20575;-77
2021/04/05 00:42:44;;;;;;;1.40;1.00;;;;;;;8.34;62.41;97801.78;5071881;28;20195;-77
2021/04/05 00:45:14;;;;;;;1.23;1.13;;;;;;;8.35;62.83;97800.78;5084758;28;20197;-77
2021/04/05 00:47:43;;;;;;;3.67;2.23;;;;;;;8.29;62.31;97780.84;5079870;28;20232;-76
2021/04/05 00:50:11;;;;;;;1.40;1.17;;;;;;;8.39;61.78;97775.38;5076922;28;20201;-77
2021/04/05 00:52:39;;;;;;;1.07;0.87;;;;;;;8.49;61.88;97786.75;5081763;28;20615;-76
2021/04/05 00:55:08;;;;;;;1.00;1.00;;;;;;;8.46;61.78;97770.22;5080847;28;20194;-77
2021/04/05 00:57:35;;;;;;;0.83;0.70;;;;;;;8.53;61.19;97766.69;5089400;28;20689;-77
2021/04/05 01:00:07;;;;;;;1.40;0.60;;;;;;;8.45;61.25;97760.50;5093013;28;20243;-77
2021/04/05 01:02:35;;;;;;;0.80;0.70;;;;;;;8.42;61.39;97758.16;5085613;28;20232;-76
2021/04/05 01:05:03;;;;;;;1.10;1.00;;;;;;;8.35;61.58;97729.44;5085720;28;20209;-76
2021/04/05 01:07:30;;;;;;;0.60;0.60;;;;;;;8.21;61.92;97731.84;5078188;28;20327;-76
2021/04/05 01:09:58;;;;;;;3.30;0.77;;;;;;;8.29;61.63;97730.06;5083541;28;20643;-76
2021/04/05 01:12:25;;;;;;;1.20;0.93;;;;;;;8.29;61.87;97722.03;5077286;28;20341;-76
2021/04/05 01:14:52;;;;;;;1.53;0.90;;;;;;;8.29;61.86;97727.38;5087935;28;20227;-77
2021/04/05 01:17:20;;;;;;;2.30;0.97;;;;;;;8.26;62.30;97732.19;5084781;28;20213;-77
2021/04/05 01:19:47;;;;;;;1.60;0.70;;;;;;;8.18;62.30;97735.69;5084377;28;20695;-77
2021/04/05 01:22:15;;;;;;;1.93;0.90;;;;;;;8.12;62.87;97757.72;5090970;28;20220;-69
2021/04/05 01:24:42;;;;;;;1.03;0.40;;;;;;;7.94;62.49;97696.38;5076354;28;20230;-69
2021/04/05 01:27:09;;;;;;;0.40;0.40;;;;;;;8.08;62.43;97749.19;5089996;28;20219;-69
2021/04/05 01:29:37;;;;;;;0.83;0.37;;;;;;;7.91;62.84;97739.44;5078609;28;20274;-69
2021/04/05 01:32:06;;;;;;;1.97;0.70;;;;;;;7.69;63.57;97727.53;5082667;28;20662;-69
2021/04/05 01:34:37;;;;;;;0.63;0.43;;;;;;;7.59;63.32;97721.44;5074763;28;20644;-70
2021/04/05 01:37:04;;;;;;;2.07;0.40;;;;;;;7.32;64.26;97718.97;5085729;28;20274;-69
2021/04/05 01:39:35;;;;;;;3.97;0.50;;;;;;;7.27;64.34;97719.44;5078423;28;20570;-69
2021/04/05 01:42:04;;;;;;;3.07;0.40;;;;;;;7.05;65.40;97693.31;5074970;28;20227;-70
2021/04/05 01:44:32;;;;;;;0.40;0.40;;;;;;;7.17;65.32;97697.38;5078909;28;20302;-69
2021/04/05 01:46:59;;;;;;;0.63;0.40;;;;;;;6.95;64.85;97645.41;5070381;28;20232;-70
2021/04/05 01:49:27;;;;;;;0.80;0.50;;;;;;;7.24;64.50;97692.25;5084591;28;20242;-69
2021/04/05 01:51:54;;;;;;;0.70;0.60;;;;;;;7.18;64.40;97676.88;5080101;28;20285;-70
2021/04/05 01:54:22;;;;;;;1.67;0.40;;;;;;;6.73;64.21;97614.75;5074888;28;20680;-70
2021/04/05 01:56:50;;;;;;;0.70;0.30;;;;;;;7.02;64.33;97664.25;5073656;28;20230;-70
2021/04/05 01:59:17;;;;;;;3.67;0.47;;;;;;;7.02;64.50;97646.44;5082232;28;20248;-69
2021/04/05 02:01:45;;;;;;;2.03;0.73;;;;;;;7.00;64.50;97659.09;5084699;28;20191;-68
2021/04/05 02:04:15;;;;;;;1.43;0.80;;;;;;;6.84;64.88;97643.00;5086043;28;20218;-76
2021/04/05 02:06:42;;;;;;;0.87;0.70;;;;;;;6.70;64.33;97635.56;5071735;28;20592;-68
2021/04/05 02:09:10;;;;;;;1.97;0.70;;;;;;;6.73;64.68;97635.25;5070880;28;20232;-68
2021/04/05 02:11:39;;;;;;;3.40;1.17;;;;;;;6.50;65.24;97605.63;5075410;28;20207;-69
2021/04/05 02:14:08;;;;;;;2.10;0.60;;;;;;;6.63;64.77;97614.03;5083338;28;20206;-68
2021/04/05 02:16:36;;;;;;;1.10;0.57;;;;;;;6.48;64.51;97605.78;5071301;28;20276;-68
2021/04/05 02:19:04;;;;;;;1.33;0.80;;;;;;;6.48;64.69;97632.44;5073986;28;20202;-68
2021/04/05 02:21:32;;;;;;;4.07;0.80;;;;;;;6.58;65.11;97610.16;5082463;28;20302;-68
2021/04/05 02:24:03;;;;;;;0.80;0.80;;;;;;;6.16;64.41;97557.59;5083195;28;20220;-68
2021/04/05 02:26:34;;;;;;;0.40;0.40;;;;;;;6.63;64.44;97621.19;5074541;28;20234;-68
2021/04/05 02:29:03;;;;;;;6.93;1.10;;;;;;;6.67;63.97;97614.53;5082828;28;20296;-69
2021/04/05 02:31:32;;;;;;;1.10;0.90;;;;;;;6.62;64.04;97600.84;5074686;28;20203;-76
2021/04/05 02:34:06;;;;;;;1087.47;539.63;;;;;;;6.54;64.01;97607.81;5077718;28;20210;-76
2021/04/05 02:36:34;;;;;;;20.53;7.93;;;;;;;6.58;64.43;97618.16;5084266;28;20246;-69
2021/04/05 02:39:06;;;;;;;2.90;1.03;;;;;;;6.56;64.53;97617.47;5088274;28;20279;-69
2021/04/05 02:41:35;;;;;;;1.43;1.00;;;;;;;6.56;64.85;97620.16;5084442;28;20676;-77
2021/04/05 02:44:03;;;;;;;1.50;1.33;;;;;;;6.49;65.22;97617.28;5087967;28;20202;-69
2021/04/05 02:46:32;;;;;;;1.67;1.00;;;;;;;6.45;65.35;97611.44;5089317;28;20217;-69
2021/04/05 02:49:01;;;;;;;0.50;0.50;;;;;;;6.31;65.68;97619.13;5070268;28;20712;-69
2021/04/05 02:51:28;;;;;;;1.17;0.93;;;;;;;6.30;65.82;97620.94;5070626;28;20213;-69
2021/04/05 02:53:58;;;;;;;4.23;0.83;;;;;;;6.10;66.60;97624.75;5082697;28;20611;-69
2021/04/05 02:56:25;;;;;;;0.97;0.97;;;;;;;5.74;66.91;97571.50;5075593;28;20195;-69
2021/04/05 02:58:55;;;;;;;4.03;1.53;;;;;;;6.09;66.85;97613.28;5073697;28;20713;-68
2021/04/05 03:01:24;;;;;;;4.80;2.00;;;;;;;6.04;66.70;97593.44;5077618;28;20733;-68
2021/04/05 03:03:55;;;;;;;3.87;2.57;;;;;;;6.04;66.14;97596.94;5086354;28;20534;-69
2021/04/05 03:06:24;;;;;;;1.73;1.00;;;;;;;5.82;66.56;97600.88;5077151;28;20209;-69
2021/04/05 03:08:52;;;;;;;3.83;2.20;;;;;;;5.71;66.80;97590.44;5086797;28;20279;-69
2021/04/05 03:11:21;;;;;;;2.70;1.60;;;;;;;5.58;67.03;97585.50;5075086;28;20197;-69
2021/04/05 03:13:49;;;;;;;4.13;1.07;;;;;;;5.54;67.17;97584.13;5076560;28;20655;-68
2021/04/05 03:16:19;;;;;;;5.20;1.40;;;;;;;5.41;67.13;97557.03;5073073;28;20201;-76
2021/04/05 03:18:48;;;;;;;3.13;1.40;;;;;;;5.39;67.55;97553.69;5089220;28;20633;-76
2021/04/05 03:21:17;;;;;;;3.30;3.00;;;;;;;5.40;67.66;97581.13;5077679;28;20677;-77
2021/04/05 03:23:45;;;;;;;1.10;0.77;;;;;;;5.44;67.55;97572.69;5079645;28;20224;-77
2021/04/05 03:26:13;;;;;;;1.87;0.97;;;;;;;5.33;67.33;97548.13;5074808;28;20299;-77
2021/04/05 03:28:40;;;;;;;0.70;0.70;;;;;;;5.32;67.47;97557.94;5071996;28;20276;-76
2021/04/05 03:31:10;;;;;;;1.90;0.60;;;;;;;5.29;68.30;97564.41;5074682;28;20216;-77
2021/04/05 03:33:43;;;;;;;2.00;0.57;;;;;;;5.32;68.16;97559.75;5079046;28;20285;-77
2021/04/05 03:36:17;;;;;;;1.60;0.60;;;;;;;5.16;67.50;97553.25;5084862;28;20643;-77
2021/04/05 03:38:45;;;;;;;2.30;0.70;;;;;;;5.05;68.04;97545.50;5078600;28;20193;-77
2021/04/05 03:41:20;;;;;;;0.67;0.47;;;;;;;5.19;68.42;97546.81;5075286;28;20258;-69
2021/04/05 03:43:56;;;;;;;1.73;0.67;;;;;;;5.24;68.21;97544.56;5074784;28;20248;-70
2021/04/05 03:46:28;;;;;;;0.60;0.40;;;;;;;5.36;67.75;97546.00;5086466;28;20584;-68
2021/04/05 03:49:02;;;;;;;0.97;0.60;;;;;;;5.26;67.32;97538.09;5074858;28;20197;-76
2021/04/05 03:51:35;;;;;;;1.27;0.40;;;;;;;5.29;66.90;97537.78;5084220;28;20287;-77
2021/04/05 03:54:07;;;;;;;1.00;0.30;;;;;;;5.28;66.85;97536.13;5074393;28;20263;-77
2021/04/05 03:56:41;;;;;;;0.10;0.10;;;;;;;5.21;65.49;97535.06;5074788;28;20225;-77
2021/04/05 03:59:12;;;;;;;0.30;0.30;;;;;;;4.88;65.67;97511.72;5085910;28;20203;-69
2021/04/05 04:01:47;;;;;;;5.73;0.30;;;;;;;5.07;65.58;97553.31;5081810;28;20223;-69
2021/04/05 04:04:21;;;;;;;1.60;0.10;;;;;;;5.03;66.39;97536.84;5078616;28;20212;-69
2021/04/05 04:06:58;;;;;;;0.23;0.23;;;;;;;5.02;66.16;97544.97;5079854;28;20600;-69
2021/04/05 04:09:28;;;;;;;1.07;0.23;;;;;;;4.96;65.98;97546.41;5089660;28;20204;-70
2021/04/05 04:11:57;;;;;;;0.10;0.10;;;;;;;4.94;65.27;97543.88;5091268;28;20250;-69
2021/04/05 04:14:26;;;;;;;0.10;0.10;;;;;;;4.88;65.96;97543.63;5089767;28;20668;-77
2021/04/05 04:16:55;;;;;;;0.60;0.20;;;;;;;4.90;66.25;97537.19;5077973;28;20287;-69
2021/04/05 04:19:23;;;;;;;0.00;0.00;;;;;;;4.78;65.42;97548.16;5073539;28;20201;-70
2021/04/05 04:21:51;;;;;;;0.30;0.20;;;;;;;4.60;64.50;97564.88;5092083;28;20655;-76
2021/04/05 04:24:20;;;;;;;0.20;0.20;;;;;;;4.54;63.79;97565.44;5080373;28;20201;-76
2021/04/05 04:26:48;;;;;;;0.00;0.00;;;;;;;4.67;65.14;97560.66;5071009;28;20303;-76
2021/04/05 04:29:20;;;;;;;0.10;0.10;;;;;;;4.71;65.73;97552.38;5072497;28;20204;-68
2021/04/05 04:31:47;;;;;;;50.87;30.57;;;;;;;4.74;65.58;97570.69;5086084;28;20222;-69
2021/04/05 04:34:15;;;;;;;31.00;10.07;;;;;;;4.75;65.37;97573.22;5084151;28;20293;-70
2021/04/05 04:36:43;;;;;;;34.23;13.27;;;;;;;4.47;65.73;97508.56;5086045;28;20197;-70
2021/04/05 04:39:11;;;;;;;6.17;2.87;;;;;;;4.75;65.20;97559.91;5072231;28;20280;-70
2021/04/05 04:41:41;;;;;;;2.37;1.63;;;;;;;4.81;65.06;97555.84;5072376;28;20207;-70
2021/04/05 04:44:10;;;;;;;1.03;0.80;;;;;;;4.71;65.43;97557.72;5082742;28;20289;-70
2021/04/05 04:46:38;;;;;;;0.53;0.40;;;;;;;4.58;63.96;97547.38;5084873;28;20663;-68
2021/04/05 04:49:08;;;;;;;1.20;0.30;;;;;;;4.53;65.66;97554.97;5083259;28;21606;-76
2021/04/05 04:51:36;;;;;;;0.43;0.43;;;;;;;4.43;64.47;97551.50;5078412;28;20200;-76
2021/04/05 04:54:06;;;;;;;0.73;0.73;;;;;;;4.48;64.98;97534.16;5074073;28;20243;-77
2021/04/05 04:56:33;;;;;;;0.17;0.17;;;;;;;4.05;65.50;97495.72;5089109;28;20594;-76
2021/04/05 04:59:02;;;;;;;0.23;0.23;;;;;;;4.42;65.56;97558.63;5086008;28;20564;-77
2021/04/05 05:01:31;;;;;;;0.37;0.20;;;;;;;3.90;65.69;97489.16;5074664;28;20225;-76
2021/04/05 05:04:02;;;;;;;0.33;0.20;;;;;;;4.28;65.64;97561.75;5071331;28;20285;-76
2021/04/05 05:06:30;;;;;;;0.20;0.20;;;;;;;4.05;65.86;97508.16;5071497;28;20198;-69
2021/04/05 05:08:58;;;;;;;2.17;0.27;;;;;;;4.33;65.18;97562.16;5072223;28;20224;-67
2021/04/05 05:11:27;;;;;;;1.10;1.10;;;;;;;4.48;65.78;97567.84;5083345;28;20197;-67
2021/04/05 05:13:56;;;;;;;0.40;0.40;;;;;;;4.68;65.77;97572.13;5082198;28;20206;-68
2021/04/05 05:16:24;;;;;;;0.23;0.23;;;;;;;4.73;64.25;97577.00;5074904;28;20213;-75
2021/04/05 05:18:54;;;;;;;0.50;0.50;;;;;;;4.54;64.23;97552.16;5091398;28;20202;-76
2021/04/05 05:21:25;;;;;;;1.33;1.23;;;;;;;4.99;64.46;97596.63;5086837;28;20288;-75
2021/04/05 05:23:54;;;;;;;0.83;0.10;;;;;;;5.16;63.69;97589.66;5091360;28;20205;-68
2021/04/05 05:26:23;;;;;;;0.57;0.20;;;;;;;5.19;63.81;97603.50;5080538;28;20240;-68
2021/04/05 05:28:54;;;;;;;0.63;0.10;;;;;;;5.13;63.48;97606.75;5073034;28;20543;-69
2021/04/05 05:31:21;;;;;;;0.00;0.00;;;;;;;5.18;63.26;97620.44;5077059;28;20202;-68
2021/04/05 05:33:48;;;;;;;0.07;0.07;;;;;;;5.11;62.46;97614.03;5089945;28;20203;-76
2021/04/05 05:36:17;;;;;;;0.40;0.20;;;;;;;4.78;63.28;97590.69;5090936;28;20670;-67
2021/04/05 05:38:45;;;;;;;0.10;0.10;;;;;;;4.95;63.62;97629.81;5077308;28;20254;-68
2021/04/05 05:41:24;;;;;;;0.07;0.00;;;;;;;4.99;63.60;97626.69;5078442;28;21268;-76
2021/04/05 05:43:56;;;;;;;0.10;0.07;;;;;;;4.85;64.08;97631.63;5082558;28;20204;-68
2021/04/05 05:46:31;;;;;;;0.10;0.10;;;;;;;4.97;63.20;97633.16;5086791;28;20228;-68
2021/04/05 05:49:29;;;;;;;0.00;0.00;;;;;;;4.85;63.21;97635.13;5083786;28;20292;-68
2021/04/05 05:52:09;;;;;;;0.23;0.13;;;;;;;4.87;63.01;97627.00;5080155;28;20222;-68
2021/04/05 05:54:49;;;;;;;0.37;0.13;;;;;;;5.04;62.96;97628.91;5071101;28;20643;-68
2021/04/05 05:57:22;;;;;;;0.63;0.30;;;;;;;5.26;62.85;97623.22;5085280;28;20182;-76
2021/04/05 06:00:03;;;;;;;0.27;0.20;;;;;;;5.43;61.58;97639.38;5078039;28;20197;-68
2021/04/05 06:02:51;;;;;;;0.10;0.10;;;;;;;5.42;61.59;97635.88;5078918;28;20209;-68
2021/04/05 06:05:26;;;;;;;2.13;0.30;;;;;;;5.32;61.47;97615.63;5076379;28;20201;-76
2021/04/05 06:08:11;;;;;;;0.00;0.00;;;;;;;5.23;61.62;97569.47;5071400;28;20241;-74
2021/04/05 06:10:48;;;;;;;0.10;0.10;;;;;;;5.53;61.13;97617.06;5079481;28;20635;-68
2021/04/05 06:13:25;;;;;;;0.20;0.10;;;;;;;5.64;60.90;97658.56;5078103;28;20228;-76
2021/04/05 06:16:12;;;;;;;3.13;0.20;;;;;;;5.61;61.41;97650.91;5072058;28;20660;-76
2021/04/05 06:18:49;;;;;;;0.10;0.10;;;;;;;5.57;61.06;97645.03;5077816;28;20275;-76
2021/04/05 06:21:31;;;;;;;0.10;0.10;;;;;;;5.41;61.08;97601.44;5079378;28;20213;-67
2021/04/05 06:24:03;;;;;;;0.10;0.10;;;;;;;5.69;61.51;97637.66;5076161;28;20288;-68
2021/04/05 06:26:53;;;;;;;0.10;0.10;;;;;;;6.05;60.75;97635.03;5078619;28;20217;-70
2021/04/05 06:29:39;;;;;;;0.00;0.00;;;;;;;6.43;57.47;97649.88;5072346;28;20525;-68
2021/04/05 06:32:30;;;;;;;1.40;0.10;;;;;;;6.78;58.80;97651.63;5078761;28;20288;-68
2021/04/05 06:35:19;;;;;;;1.70;0.17;;;;;;;6.73;58.46;97651.25;5080622;28;20195;-69
2021/04/05 06:37:49;;;;;;;0.00;0.00;;;;;;;6.62;58.04;97654.19;5078770;28;20210;-68
2021/04/05 06:40:21;;;;;;;1.33;0.30;;;;;;;6.50;57.33;97649.09;5073919;28;20581;-67
2021/04/05 06:43:12;;;;;;;0.33;0.20;;;;;;;6.30;56.36;97647.59;5075882;28;20212;-67
2021/04/05 06:45:49;;;;;;;0.10;0.10;;;;;;;6.16;58.04;97641.00;5082856;28;20194;-68
2021/04/05 06:48:38;;;;;;;0.23;0.20;;;;;;;6.25;57.15;97644.56;5077451;28;20217;-75
2021/04/05 06:51:19;;;;;;;0.10;0.10;;;;;;;6.37;57.73;97643.31;5082134;28;20230;-75
2021/04/05 06:54:22;;;;;;;0.20;0.20;;;;;;;6.68;58.46;97654.38;5073608;28;20663;-68
2021/04/05 06:57:05;;;;;;;0.13;0.13;;;;;;;6.85;56.65;97666.00;5076981;28;20572;-69
2021/04/05 06:59:52;;;;;;;59.73;31.17;;;;;;;7.04;56.81;97636.47;5077627;28;20746;-68
2021/04/05 07:02:56;;;;;;;1.90;1.47;;;;;;;7.22;55.66;97657.72;5072557;28;20258;-69
2021/04/05 07:05:35;;;;;;;0.50;0.50;;;;;;;6.61;54.53;97624.00;5073639;28;20197;-68
2021/04/05 07:08:11;;;;;;;1.17;0.40;;;;;;;6.63;56.31;97662.03;5076838;28;20225;-68
2021/04/05 07:10:57;;;;;;;0.83;0.50;;;;;;;6.46;56.72;97674.41;5072137;28;20259;-68
2021/04/05 07:13:33;;;;;;;0.30;0.30;;;;;;;6.34;58.33;97686.28;5069655;28;20202;-68
2021/04/05 07:16:07;;;;;;;0.37;0.37;;;;;;;5.93;58.23;97682.38;5071549;28;20196;-67
2021/04/05 07:18:52;;;;;;;1.23;0.30;;;;;;;5.42;59.87;97699.72;5074129;28;20193;-68
2021/04/05 07:21:32;;;;;;;0.20;0.20;;;;;;;5.27;60.19;97720.66;5075958;28;20246;-70
2021/04/05 07:24:09;;;;;;;0.67;0.20;;;;;;;4.89;61.83;97720.75;5074561;28;20643;-68
2021/04/05 07:26:42;;;;;;;0.40;0.40;;;;;;;4.79;61.88;97728.75;5072742;28;20205;-68
2021/04/05 07:29:15;;;;;;;0.30;0.30;;;;;;;4.46;63.47;97729.22;5075149;28;20719;-69
2021/04/05 07:31:50;;;;;;;0.63;0.63;;;;;;;4.40;63.48;97748.38;5073294;28;20300;-69
2021/04/05 07:34:27;;;;;;;0.20;0.20;;;;;;;4.11;64.07;97737.72;5074011;28;20213;-69
2021/04/05 07:37:05;;;;;;;0.30;0.10;;;;;;;3.80;64.52;97734.31;5073439;28;20311;-69
2021/04/05 07:39:34;;;;;;;0.97;0.20;;;;;;;3.32;65.51;97668.69;5072150;28;20501;-68
2021/04/05 07:42:10;;;;;;;0.73;0.73;;;;;;;3.60;65.80;97744.88;5077966;28;20253;-70
2021/04/05 07:44:55;;;;;;;0.20;0.20;;;;;;;3.59;66.24;97747.66;5077813;28;20196;-70
2021/04/05 07:47:29;;;;;;;0.40;0.40;;;;;;;3.33;66.41;97720.75;5074830;28;20766;-70
2021/04/05 07:50:03;;;;;;;6.57;5.07;;;;;;;3.58;66.45;97757.44;5077936;28;20281;-70
2021/04/05 07:52:36;;;;;;;2.00;0.67;;;;;;;3.36;66.82;97731.94;5074344;28;20201;-70
2021/04/05 07:55:05;;;;;;;1.60;1.40;;;;;;;3.40;66.69;97740.47;5081446;28;20205;-71
2021/04/05 07:57:40;;;;;;;6.50;0.67;;;;;;;3.46;68.50;97763.81;5073374;28;20208;-70
2021/04/05 08:00:15;;;;;;;1.50;0.27;;;;;;;3.34;68.57;97771.00;5076687;28;20203;-70
2021/04/05 08:02:51;;;;;;;0.10;0.10;;;;;;;3.18;68.14;97772.47;5076046;28;20238;-70
2021/04/05 08:05:31;;;;;;;0.13;0.13;;;;;;;2.97;68.69;97773.31;5079382;28;20212;-70
2021/04/05 08:08:16;;;;;;;1.27;0.30;;;;;;;2.75;69.45;97766.31;5073680;28;20290;-70
2021/04/05 08:10:55;;;;;;;0.20;0.20;;;;;;;2.83;68.48;97778.13;5079129;28;20646;-70
2021/04/05 08:13:29;;;;;;;0.20;0.20;;;;;;;2.79;68.76;97774.88;5079143;28;20692;-70
2021/04/05 08:16:08;;;;;;;0.00;0.00;;;;;;;2.66;70.14;97774.22;5076283;28;20235;-70
2021/04/05 08:18:39;;;;;;;0.20;0.17;;;;;;;2.62;69.58;97783.38;5076099;28;20196;-71
2021/04/05 08:21:11;;;;;;;0.00;0.00;;;;;;;2.63;69.46;97772.66;5075594;28;20283;-70
2021/04/05 08:23:53;;;;;;;0.73;0.20;;;;;;;2.68;69.76;97778.41;5069769;28;20758;-71
2021/04/05 08:26:29;;;;;;;0.10;0.10;;;;;;;2.49;69.41;97749.16;5073009;28;20278;-70
2021/04/05 08:29:04;;;;;;;0.10;0.10;;;;;;;2.86;68.54;97783.16;5071633;28;20571;-69
2021/04/05 08:31:47;;;;;;;0.10;0.10;;;;;;;2.94;68.93;97786.00;5094387;28;20207;-70
2021/04/05 08:34:23;;;;;;;0.20;0.20;;;;;;;2.92;68.69;97777.34;5082165;28;20886;-71
2021/04/05 08:37:06;;;;;;;2.37;0.30;;;;;;;2.97;68.01;97775.97;5079580;28;20196;-70
2021/04/05 08:39:42;;;;;;;0.27;0.23;;;;;;;3.01;67.91;97777.38;5079018;28;20706;-70
2021/04/05 08:42:17;;;;;;;2.23;0.20;;;;;;;2.91;66.76;97712.06;5077972;28;20201;-70
2021/04/05 08:44:51;;;;;;;0.60;0.33;;;;;;;3.74;65.55;97780.81;5079844;28;20242;-70
2021/04/05 08:47:24;;;;;;;0.40;0.30;;;;;;;3.82;65.26;97793.41;5078356;28;20307;-70
2021/04/05 08:49:55;;;;;;;0.53;0.33;;;;;;;3.90;64.30;97765.19;5078754;28;20203;-70
2021/04/05 08:52:25;;;;;;;0.23;0.23;;;;;;;4.14;64.50;97817.09;5076604;28;20556;-70
2021/04/05 08:54:54;;;;;;;1.67;0.40;;;;;;;4.04;64.36;97803.81;5078257;28;20552;-76
2021/04/05 08:57:25;;;;;;;1.03;0.40;;;;;;;3.83;65.29;97824.28;5081999;28;20206;-76
2021/04/05 08:59:58;;;;;;;0.23;0.23;;;;;;;3.49;66.24;97818.41;5080379;28;20540;-76
2021/04/05 09:02:32;;;;;;;0.20;0.20;;;;;;;3.38;65.99;97822.00;5079042;28;20207;-75
2021/04/05 09:05:01;;;;;;;1.50;0.70;;;;;;;3.36;66.25;97819.44;5082281;28;20207;-76
2021/04/05 09:07:43;;;;;;;0.43;0.30;;;;;;;3.45;65.90;97806.38;5078003;28;20315;-75
2021/04/05 09:10:11;;;;;;;0.13;0.13;;;;;;;3.45;65.26;97811.69;5072459;28;20211;-70
2021/04/05 09:12:41;;;;;;;0.83;0.50;;;;;;;3.74;64.21;97805.53;5075856;28;20272;-70
2021/04/05 09:15:59;;;;;;;0.40;0.40;;;;;;;3.96;62.99;97801.81;5073524;28;20638;-70
2021/04/05 09:19:03;;;;;;;0.20;0.20;;;;;;;3.71;62.47;97803.16;5047439;28;20671;-73
2021/04/05 09:21:45;;;;;;;0.20;0.20;;;;;;;3.75;62.75;97806.38;5078256;28;20200;-72
2021/04/05 09:24:29;;;;;;;2.00;0.20;;;;;;;3.61;62.34;97786.34;5077275;28;20570;-71
2021/04/05 09:27:25;;;;;;;3.30;1.67;;;;;;;3.52;62.13;97751.81;5076394;28;20216;-73
2021/04/05 09:30:05;;;;;;;0.70;0.70;;;;;;;4.10;61.23;97807.75;5077501;28;20204;-71
2021/04/05 09:33:02;;;;;;;1.03;0.70;;;;;;;4.21;60.78;97803.13;5077901;28;20208;-72
2021/04/05 09:35:42;;;;;;;1.13;0.67;;;;;;;4.05;60.62;97779.78;5075942;28;20197;-74
2021/04/05 09:38:35;;;;;;;0.63;0.33;;;;;;;4.03;60.77;97792.34;5082860;28;20227;-72
2021/04/05 09:41:21;;;;;;;6.50;0.30;;;;;;;4.32;61.00;97812.81;5082648;28;20225;-72
2021/04/05 09:44:27;;;;;;;0.80;0.80;;;;;;;4.16;60.85;97788.59;5074748;28;20725;-72
2021/04/05 09:47:05;;;;;;;0.70;0.63;;;;;;;4.36;60.47;97820.38;5079564;28;20213;-73
2021/04/05 09:49:46;;;;;;;0.90;0.90;;;;;;;4.24;60.78;97783.44;5085719;28;20291;-72
2021/04/05 09:52:38;;;;;;;1.30;1.13;;;;;;;4.50;60.75;97813.81;5077106;28;20526;-73
2021/04/05 09:55:11;;;;;;;0.63;0.37;;;;;;;4.38;61.07;97788.34;5078608;28;20200;-73
2021/04/05 09:57:44;;;;;;;0.17;0.17;;;;;;;4.52;60.74;97819.81;5074776;28;20220;-75
2021/04/05 10:00:14;;;;;;;2.53;0.90;;;;;;;4.43;60.71;97822.47;5085329;28;20540;-73
2021/04/05 10:02:48;;;;;;;0.47;0.47;;;;;;;4.40;60.16;97839.53;5083901;28;20246;-73
2021/04/05 10:05:18;;;;;;;0.30;0.30;;;;;;;3.88;60.08;97788.38;5078623;28;20286;-74
2021/04/05 10:07:49;;;;;;;0.63;0.13;;;;;;;3.92;60.91;97847.34;5076962;28;20319;-74
2021/04/05 10:10:17;;;;;;;0.40;0.28;;;;;;;3.99;61.07;97849.34;5080600;28;20908;-74
2021/04/05 10:12:46;;;;;;;2.33;0.30;;;;;;;4.11;61.05;97851.91;5076425;28;20707;-74
2021/04/05 10:15:17;;;;;;;0.70;0.30;;;;;;;3.98;61.50;97847.69;5075244;28;20204;-74
2021/04/05 10:17:48;;;;;;;0.03;0.03;;;;;;;4.03;61.08;97845.47;5078975;28;20270;-74
2021/04/05 10:20:17;;;;;;;3.30;0.40;;;;;;;3.84;61.78;97860.47;5076039;28;20197;-74
2021/04/05 10:22:48;;;;;;;0.30;0.30;;;;;;;3.85;62.40;97856.84;5079662;28;20275;-74
2021/04/05 10:25:20;;;;;;;0.23;0.23;;;;;;;3.79;62.51;97855.56;5078836;28;20311;-74
2021/04/05 10:27:52;;;;;;;0.93;0.30;;;;;;;3.84;62.10;97861.31;5081809;28;20302;-74
2021/04/05 10:30:21;;;;;;;1.40;0.20;;;;;;;3.85;62.24;97856.84;5078767;28;20197;-74
2021/04/05 10:32:50;;;;;;;0.20;0.20;;;;;;;3.91;62.25;97856.28;5077958;28;20235;-75
2021/04/05 10:35:19;;;;;;;3.40;0.30;;;;;;;4.01;62.10;97857.19;5097911;28;20300;-74
2021/04/05 10:37:47;;;;;;;2.00;0.20;;;;;;;4.09;61.72;97869.78;5074776;28;20277;-74
2021/04/05 10:40:17;;;;;;;0.23;0.23;;;;;;;3.79;62.81;97834.31;5077038;28;20203;-75
2021/04/05 10:42:48;;;;;;;0.47;0.40;;;;;;;4.14;61.75;97871.06;5078947;28;20330;-74
2021/04/05 10:45:21;;;;;;;6.00;1.43;;;;;;;4.25;62.03;97870.09;5074278;28;20193;-74
2021/04/05 10:47:54;;;;;;;1.70;0.67;;;;;;;4.21;61.83;97868.69;5080355;28;20857;-73
2021/04/05 10:50:26;;;;;;;0.50;0.50;;;;;;;4.28;61.23;97867.16;5077881;28;20198;-73
2021/04/05 10:52:59;;;;;;;0.47;0.37;;;;;;;4.32;61.03;97866.78;5079173;28;20233;-72
2021/04/05 10:55:29;;;;;;;0.80;0.30;;;;;;;4.20;61.34;97872.31;5074275;28;21650;-77
2021/04/05 10:58:01;;;;;;;0.30;0.30;;;;;;;4.26;60.98;97863.81;5073662;28;20250;-75
2021/04/05 11:00:34;;;;;;;0.37;0.33;;;;;;;4.25;61.37;97860.31;5075122;28;20193;-75
2021/04/05 11:03:08;;;;;;;0.33;0.23;;;;;;;4.02;61.40;97830.50;5076274;28;20219;-76
2021/04/05 11:05:38;;;;;;;0.20;0.20;;;;;;;4.20;61.28;97867.00;5074455;28;20214;-76
2021/04/05 11:08:08;;;;;;;0.20;0.20;;;;;;;4.16;61.47;97844.38;5078895;28;21862;-77
2021/04/05 11:10:38;;;;;;;0.30;0.10;;;;;;;4.24;60.81;97863.09;5076711;28;20200;-78
2021/04/05 11:13:08;;;;;;;0.30;0.30;;;;;;;4.03;61.67;97877.31;5075203;28;20220;-76
2021/04/05 11:15:43;;;;;;;0.30;0.30;;;;;;;4.13;61.62;97871.19;5076780;28;20197;-76
2021/04/05 11:18:14;;;;;;;0.23;0.23;;;;;;;4.13;61.46;97887.13;5070736;28;20204;-75
2021/04/05 11:20:44;;;;;;;0.10;0.10;;;;;;;4.22;61.65;97891.63;5074276;28;20201;-75
2021/04/05 11:23:17;;;;;;;0.10;0.10;;;;;;;4.28;61.19;97897.22;5082044;28;20196;-76
2021/04/05 11:25:46;;;;;;;0.93;0.20;;;;;;;4.31;61.09;97896.97;5074292;28;20254;-75
2021/04/05 11:28:20;;;;;;;0.20;0.20;;;;;;;4.41;60.79;97897.00;5073190;28;20220;-76
2021/04/05 11:30:50;;;;;;;0.00;0.00;;;;;;;4.45;60.54;97898.41;5078092;28;20655;-72
2021/04/05 11:33:29;;;;;;;13.47;10.23;;;;;;;4.53;60.01;97893.25;5072060;28;20201;-71
2021/04/05 11:35:58;;;;;;;6.67;5.73;;;;;;;4.59;60.46;97895.38;5073941;28;20695;-70
2021/04/05 11:38:27;;;;;;;0.70;0.70;;;;;;;4.75;60.70;97889.50;5078365;28;20285;-70
2021/04/05 11:41:02;;;;;;;1.57;1.47;;;;;;;4.84;58.78;97887.81;5077284;28;20230;-71
2021/04/05 11:43:35;;;;;;;0.87;0.87;;;;;;;4.77;59.54;97892.03;5075405;28;20204;-70
2021/04/05 11:46:07;;;;;;;0.50;0.37;;;;;;;4.75;59.86;97904.63;5073828;28;20200;-73
2021/04/05 11:48:38;;;;;;;0.47;0.47;;;;;;;4.77;58.97;97900.84;5071705;28;20473;-75
2021/04/05 11:51:07;;;;;;;0.40;0.40;;;;;;;4.88;58.75;97900.69;5068017;28;20185;-77
2021/04/05 11:53:47;;;;;;;1.07;1.07;;;;;;;5.02;58.88;97902.13;5070419;28;20196;-76
2021/04/05 11:56:24;;;;;;;0.40;0.40;;;;;;;5.28;57.49;97895.25;5070743;28;20197;-76
2021/04/05 11:59:01;;;;;;;0.70;0.70;;;;;;;5.31;57.21;97891.47;5069841;28;20281;-77
2021/04/05 12:01:37;;;;;;;0.20;0.20;;;;;;;5.29;56.27;97880.13;5073598;28;20200;-77
2021/04/05 12:04:17;;;;;;;0.60;0.60;;;;;;;5.38;57.12;97897.06;5074359;28;20197;-76
2021/04/05 12:06:49;;;;;;;0.93;0.67;;;;;;;5.22;56.57;97860.41;5070566;28;20872;-75
2021/04/05 12:09:23;;;;;;;0.73;0.70;;;;;;;5.17;55.87;97783.69;5077838;28;20291;-76